Terminal Aerodrome Forecast
Issued by NWS

Home | Current Version | Previous Version | Text Only | Print | Product List | Glossary On
Versions: 1 2 3 4 5 6 7 8 9 10 11 12 13 14 15 16 17 18 19 20
000
FTUS46 KMTR 041600 AAB
TAFMRY
TAF AMD
KMRY 041600Z 0416/0512 VRB03KT P6SM SCT005
     FM041700 VRB05KT P6SM FEW008
     FM041900 30007KT P6SM FEW009
     FM042100 26009KT P6SM FEW010
     FM050200 25008KT P6SM BKN009
     FM050600 25004KT P6SM OVC005=

USA.gov is the U.S. government's official web portal to all federal, state and local government web resources and services.